Time;durP1;ratioP1;P1;durP2;ratioP2;P2;SDS_P1;SDS_P2;PMS_P1;PMS_P2;Temp;Humidity;BMP_temperature;BMP_pressure;BME280_temperature;BME280_humidity;BME280_pressure;Samples;Min_cycle;Max_cycle;Signal;HPM_P1;HPM_P2
2021/06/16 00:04:07;;;;;;;3.00;0.95;;;;;;;;;;10316297;28;20280;-65
2021/06/16 00:09:05;;;;;;;1.77;0.90;;;;;;;;;;10309878;28;20029;-65
2021/06/16 00:14:03;;;;;;;2.50;0.95;;;;;;;;;;10297568;28;20029;-65
2021/06/16 00:19:00;;;;;;;3.43;0.80;;;;;;;;;;10330261;28;20045;-64
2021/06/16 00:23:58;;;;;;;2.10;0.60;;;;;;;;;;10334384;28;20089;-64
2021/06/16 00:28:55;;;;;;;1.20;1.00;;;;;;;;;;10325417;28;20075;-64
2021/06/16 00:33:53;;;;;;;0.90;0.87;;;;;;;;;;10299053;28;20032;-65
2021/06/16 00:38:50;;;;;;;1.77;0.90;;;;;;;;;;10342685;28;20106;-65
2021/06/16 00:43:48;;;;;;;1.63;0.97;;;;;;;;;;10298719;28;20033;-65
2021/06/16 00:48:45;;;;;;;2.80;1.00;;;;;;;;;;10281132;28;20968;-65
2021/06/16 00:53:43;;;;;;;2.57;0.93;;;;;;;;;;10288744;28;20042;-65
2021/06/16 00:58:40;;;;;;;2.20;0.90;;;;;;;;;;10297629;28;20040;-65
2021/06/16 01:03:42;;;;;;;3.93;1.00;;;;;;;;;;10274271;28;20395;-65
2021/06/16 01:08:42;;;;;;;2.15;0.85;;;;;;;;;;10292314;28;20079;-65
2021/06/16 01:13:42;;;;;;;1.80;0.90;;;;;;;;;;10290951;28;20083;-65
2021/06/16 01:19:06;;;;;;;3.00;1.10;;;;;;;;;;10324327;28;20037;-65
2021/06/16 01:24:05;;;;;;;1.98;0.70;;;;;;;;;;10267491;28;20042;-65
2021/06/16 01:29:23;;;;;;;2.22;1.05;;;;;;;;;;10275706;28;20423;-65
2021/06/16 01:34:21;;;;;;;2.72;0.95;;;;;;;;;;10291293;28;20064;-65
2021/06/16 01:39:21;;;;;;;2.58;1.10;;;;;;;;;;10270327;28;20033;-65
2021/06/16 01:44:19;;;;;;;1.67;0.93;;;;;;;;;;10295914;28;20374;-65
2021/06/16 01:49:17;;;;;;;1.80;0.90;;;;;;;;;;10263579;28;20041;-65
2021/06/16 01:54:16;;;;;;;2.78;0.90;;;;;;;;;;10325227;28;20499;-65
2021/06/16 01:59:14;;;;;;;2.42;0.82;;;;;;;;;;10287079;28;20042;-64
2021/06/16 02:04:11;;;;;;;2.07;1.00;;;;;;;;;;10305989;28;20033;-64
2021/06/16 02:09:10;;;;;;;2.57;0.83;;;;;;;;;;10269389;28;20037;-64
2021/06/16 02:14:09;;;;;;;4.15;0.85;;;;;;;;;;10292330;28;20033;-65
2021/06/16 02:19:12;;;;;;;3.92;0.85;;;;;;;;;;10289184;28;20088;-64
2021/06/16 02:24:10;;;;;;;2.50;1.00;;;;;;;;;;10293723;28;20040;-64
2021/06/16 02:29:10;;;;;;;2.45;0.80;;;;;;;;;;10296936;28;20037;-65
2021/06/16 02:34:08;;;;;;;1.40;0.95;;;;;;;;;;10300276;28;20034;-65
2021/06/16 02:39:08;;;;;;;3.17;1.10;;;;;;;;;;10270833;28;20455;-65
2021/06/16 02:44:06;;;;;;;1.55;0.80;;;;;;;;;;10259181;28;20025;-64
2021/06/16 02:49:05;;;;;;;2.20;1.00;;;;;;;;;;10273019;28;20504;-64
2021/06/16 02:54:02;;;;;;;2.63;1.02;;;;;;;;;;10288952;28;20042;-64
2021/06/16 02:59:00;;;;;;;3.07;1.13;;;;;;;;;;10297077;28;20042;-65
2021/06/16 03:03:59;;;;;;;5.07;1.20;;;;;;;;;;10295863;28;20029;-64
2021/06/16 03:08:57;;;;;;;;;;;;;;;;;;10282101;28;20462;-64
2021/06/16 03:13:54;;;;;;;2.08;1.10;;;;;;;;;;10293329;28;20048;-64
2021/06/16 03:18:52;;;;;;;2.17;0.93;;;;;;;;;;10289011;28;20136;-64
2021/06/16 03:23:50;;;;;;;2.58;1.00;;;;;;;;;;10287719;28;20544;-64
2021/06/16 03:28:48;;;;;;;4.10;1.03;;;;;;;;;;10297036;28;20353;-64
2021/06/16 03:33:46;;;;;;;2.07;0.90;;;;;;;;;;10274140;28;20393;-64
2021/06/16 03:38:43;;;;;;;4.17;1.17;;;;;;;;;;10301522;28;20408;-64
2021/06/16 03:43:41;;;;;;;2.03;1.00;;;;;;;;;;10294821;28;20037;-64
2021/06/16 03:48:40;;;;;;;2.17;1.10;;;;;;;;;;10283888;28;20041;-64
2021/06/16 03:53:37;;;;;;;;;;;;;;;;;;10299147;28;20053;-64
2021/06/16 03:58:36;;;;;;;4.05;1.17;;;;;;;;;;10287011;28;20097;-64
2021/06/16 04:03:34;;;;;;;1.77;1.02;;;;;;;;;;10301272;28;20034;-64
2021/06/16 04:08:31;;;;;;;2.27;1.10;;;;;;;;;;10276725;28;20090;-64
2021/06/16 04:13:29;;;;;;;5.03;1.33;;;;;;;;;;10272723;28;20118;-64
2021/06/16 04:18:29;;;;;;;2.77;1.43;;;;;;;;;;10280881;28;20038;-64
2021/06/16 04:23:27;;;;;;;4.25;1.30;;;;;;;;;;10290371;28;20526;-64
2021/06/16 04:28:24;;;;;;;4.70;1.40;;;;;;;;;;10288082;28;20396;-64
2021/06/16 04:33:22;;;;;;;1.40;1.30;;;;;;;;;;10293035;28;20036;-64
2021/06/16 04:38:19;;;;;;;3.47;1.77;;;;;;;;;;10267261;28;20041;-64
2021/06/16 04:43:17;;;;;;;3.60;2.33;;;;;;;;;;10287218;28;20492;-64
2021/06/16 04:48:14;;;;;;;2.73;2.20;;;;;;;;;;10283453;28;20115;-63
2021/06/16 04:53:12;;;;;;;5.63;2.30;;;;;;;;;;10270142;28;20057;-64
2021/06/16 04:58:09;;;;;;;7.87;3.00;;;;;;;;;;10281032;28;20471;-63
2021/06/16 05:03:07;;;;;;;7.80;2.90;;;;;;;;;;10306965;28;20346;-65
2021/06/16 05:08:04;;;;;;;5.57;2.70;;;;;;;;;;10273807;28;20094;-64
2021/06/16 05:13:02;;;;;;;7.27;2.60;;;;;;;;;;10282895;28;20041;-65
2021/06/16 05:18:00;;;;;;;6.90;2.70;;;;;;;;;;10273419;28;20083;-64
2021/06/16 05:22:58;;;;;;;7.37;2.40;;;;;;;;;;10268810;28;20029;-65
2021/06/16 05:27:55;;;;;;;6.20;2.05;;;;;;;;;;10273491;28;20123;-65
2021/06/16 05:32:53;;;;;;;5.67;2.43;;;;;;;;;;10264426;28;20044;-66
2021/06/16 05:37:51;;;;;;;3.25;2.05;;;;;;;;;;10291356;28;20105;-65
2021/06/16 05:42:49;;;;;;;6.50;2.30;;;;;;;;;;10283063;28;20535;-66
2021/06/16 05:47:46;;;;;;;6.57;2.40;;;;;;;;;;10293559;28;20032;-66
2021/06/16 05:52:44;;;;;;;10.50;2.80;;;;;;;;;;10292908;28;20150;-65
2021/06/16 05:57:42;;;;;;;;;;;;;;;;;;10290120;28;20090;-66
2021/06/16 06:02:41;;;;;;;7.88;2.45;;;;;;;;;;10290542;28;19922;-66
2021/06/16 06:07:38;;;;;;;7.18;2.70;;;;;;;;;;10271322;28;20042;-66
2021/06/16 06:12:35;;;;;;;10.13;2.50;;;;;;;;;;10287343;28;20312;-66
2021/06/16 06:17:34;;;;;;;9.50;2.67;;;;;;;;;;10298242;28;20346;-66
2021/06/16 06:22:31;;;;;;;5.25;1.80;;;;;;;;;;10281823;28;20464;-65
2021/06/16 06:27:28;;;;;;;4.87;1.70;;;;;;;;;;10299387;28;20207;-65
2021/06/16 06:32:26;;;;;;;5.83;1.30;;;;;;;;;;10271365;28;20422;-64
2021/06/16 06:37:23;;;;;;;3.50;1.50;;;;;;;;;;10310882;28;20037;-65
2021/06/16 06:42:24;;;;;;;8.70;1.85;;;;;;;;;;10314150;28;20171;-65
2021/06/16 06:47:39;;;;;;;18.10;2.95;;;;;;;;;;10294988;28;20041;-65
2021/06/16 06:52:36;;;;;;;10.37;2.13;;;;;;;;;;10276499;28;20033;-65
2021/06/16 06:57:37;;;;;;;9.17;1.70;;;;;;;;;;10301316;28;20133;-65
2021/06/16 07:02:34;;;;;;;6.35;1.55;;;;;;;;;;10289201;28;20033;-66
2021/06/16 07:07:50;;;;;;;5.93;1.38;;;;;;;;;;10285085;28;20403;-66
2021/06/16 07:12:47;;;;;;;7.03;1.95;;;;;;;;;;10294657;28;20049;-65
2021/06/16 07:17:45;;;;;;;5.60;1.20;;;;;;;;;;10274902;28;20033;-65
2021/06/16 07:22:43;;;;;;;8.40;1.63;;;;;;;;;;10289324;28;20029;-65
2021/06/16 07:27:43;;;;;;;3.78;1.42;;;;;;;;;;10320887;28;20029;-65
2021/06/16 07:32:40;;;;;;;7.10;1.50;;;;;;;;;;10304520;28;20060;-65
2021/06/16 07:37:38;;;;;;;;;;;;;;;;;;10307061;28;20041;-65
2021/06/16 07:42:35;;;;;;;4.30;1.17;;;;;;;;;;10324267;28;19917;-65
2021/06/16 07:47:33;;;;;;;4.47;1.67;;;;;;;;;;10270678;28;20053;-65
2021/06/16 07:52:31;;;;;;;6.72;1.63;;;;;;;;;;10277475;28;20038;-66
2021/06/16 07:57:28;;;;;;;4.72;1.27;;;;;;;;;;10303241;28;20496;-66
2021/06/16 08:02:27;;;;;;;44.30;5.80;;;;;;;;;;10316517;28;20116;-66
2021/06/16 08:07:24;;;;;;;5.97;1.58;;;;;;;;;;10286810;28;20463;-66
2021/06/16 08:12:22;;;;;;;2.95;1.10;;;;;;;;;;10303919;28;20064;-65
2021/06/16 08:17:19;;;;;;;3.20;1.17;;;;;;;;;;10311310;28;20526;-66
2021/06/16 08:22:18;;;;;;;5.80;1.55;;;;;;;;;;10303909;28;20283;-65
2021/06/16 08:27:16;;;;;;;12.30;2.20;;;;;;;;;;10285968;28;20376;-65
2021/06/16 08:32:13;;;;;;;15.50;2.42;;;;;;;;;;10301025;28;20037;-66
2021/06/16 08:37:10;;;;;;;9.60;1.80;;;;;;;;;;10281727;28;20132;-66
2021/06/16 08:42:09;;;;;;;7.95;1.95;;;;;;;;;;10299669;28;20511;-66
2021/06/16 08:47:07;;;;;;;8.13;1.92;;;;;;;;;;10280695;28;20115;-66
2021/06/16 08:52:04;;;;;;;10.30;1.88;;;;;;;;;;10283076;28;20084;-66
2021/06/16 08:57:02;;;;;;;5.43;1.55;;;;;;;;;;10317185;28;20034;-66
2021/06/16 09:02:00;;;;;;;5.35;1.27;;;;;;;;;;10306157;28;20057;-66
2021/06/16 09:07:06;;;;;;;5.18;1.33;;;;;;;;;;10308928;28;20117;-66
2021/06/16 09:12:06;;;;;;;3.13;1.10;;;;;;;;;;10291234;28;20034;-66
2021/06/16 09:17:03;;;;;;;4.43;1.17;;;;;;;;;;10315891;28;20059;-66
2021/06/16 09:22:08;;;;;;;3.83;1.00;;;;;;;;;;10334748;28;20120;-67
2021/06/16 09:27:05;;;;;;;4.35;1.20;;;;;;;;;;10319978;28;20134;-66
2021/06/16 09:32:04;;;;;;;12.02;1.60;;;;;;;;;;10334121;28;20040;-68
2021/06/16 09:37:06;;;;;;;8.15;1.48;;;;;;;;;;10323216;28;20041;-67
2021/06/16 09:42:12;;;;;;;3.92;0.68;;;;;;;;;;10310315;28;20083;-67
2021/06/16 09:47:13;;;;;;;3.08;1.23;;;;;;;;;;10311935;28;20061;-67
2021/06/16 09:52:28;;;;;;;3.85;0.95;;;;;;;;;;10337007;28;20090;-68
2021/06/16 09:57:26;;;;;;;4.90;1.23;;;;;;;;;;10338821;28;20040;-67
2021/06/16 10:02:24;;;;;;;4.93;1.40;;;;;;;;;;10332969;28;20037;-66
2021/06/16 10:07:22;;;;;;;2.80;1.05;;;;;;;;;;10317636;28;20283;-66
2021/06/16 10:12:21;;;;;;;6.60;1.13;;;;;;;;;;10342236;28;20394;-67
2021/06/16 10:17:22;;;;;;;3.03;0.95;;;;;;;;;;10317555;28;20044;-67
2021/06/16 10:22:19;;;;;;;11.25;1.63;;;;;;;;;;10326455;28;20098;-67
2021/06/16 10:27:23;;;;;;;7.78;1.38;;;;;;;;;;10313588;28;20034;-68
2021/06/16 10:32:20;;;;;;;8.73;1.75;;;;;;;;;;10331096;28;20037;-68
2021/06/16 10:37:36;;;;;;;4.95;1.08;;;;;;;;;;10315866;28;20029;-68
2021/06/16 10:42:52;;;;;;;3.38;0.90;;;;;;;;;;10315450;28;20049;-67
2021/06/16 10:48:06;;;;;;;2.15;0.70;;;;;;;;;;10333003;28;20134;-67
2021/06/16 10:53:04;;;;;;;1.35;0.63;;;;;;;;;;10336844;28;20522;-67
2021/06/16 10:58:16;;;;;;;2.25;1.13;;;;;;;;;;10328828;28;20376;-67
2021/06/16 11:03:17;;;;;;;2.90;0.90;;;;;;;;;;10276624;28;20120;-68
2021/06/16 11:08:34;;;;;;;2.50;0.90;;;;;;;;;;10291095;28;20583;-67
2021/06/16 11:13:36;;;;;;;4.82;1.10;;;;;;;;;;10292015;28;20261;-67
2021/06/16 11:18:33;;;;;;;2.50;1.20;;;;;;;;;;10295790;28;20043;-67
2021/06/16 11:23:32;;;;;;;4.13;1.10;;;;;;;;;;10327423;28;20041;-67
2021/06/16 11:28:37;;;;;;;8.25;1.00;;;;;;;;;;10323441;28;20278;-68
2021/06/16 11:33:35;;;;;;;2.58;0.80;;;;;;;;;;10326737;28;20064;-68
2021/06/16 11:38:34;;;;;;;2.45;1.15;;;;;;;;;;10306154;28;20103;-67
2021/06/16 11:43:35;;;;;;;2.00;0.93;;;;;;;;;;10337923;28;20026;-68
2021/06/16 11:48:32;;;;;;;1.38;0.60;;;;;;;;;;10307919;28;20171;-67
2021/06/16 11:53:31;;;;;;;1.52;0.95;;;;;;;;;;10322603;28;20057;-68
2021/06/16 11:58:28;;;;;;;2.10;0.73;;;;;;;;;;10321777;28;20679;-68
2021/06/16 12:03:26;;;;;;;1.13;0.80;;;;;;;;;;10309259;28;20135;-68
2021/06/16 12:08:23;;;;;;;2.60;1.10;;;;;;;;;;10302508;28;20681;-68
2021/06/16 12:13:21;;;;;;;4.63;1.10;;;;;;;;;;10317574;28;20276;-67
2021/06/16 12:18:19;;;;;;;1.60;0.73;;;;;;;;;;10282034;28;20036;-68
2021/06/16 12:23:31;;;;;;;2.70;0.87;;;;;;;;;;10311315;28;20033;-69
2021/06/16 12:28:29;;;;;;;2.35;0.80;;;;;;;;;;10317555;28;20345;-68
2021/06/16 12:33:37;;;;;;;3.13;1.05;;;;;;;;;;10303973;28;20041;-67
2021/06/16 12:38:37;;;;;;;2.90;0.82;;;;;;;;;;10320619;28;20467;-69
2021/06/16 12:43:34;;;;;;;2.65;1.05;;;;;;;;;;10327766;28;20120;-67
2021/06/16 12:48:31;;;;;;;2.30;0.80;;;;;;;;;;10308392;28;20140;-68
2021/06/16 12:53:35;;;;;;;1.47;0.70;;;;;;;;;;10328344;28;20036;-67
2021/06/16 12:58:43;;;;;;;1.17;0.70;;;;;;;;;;10292346;28;20128;-67
2021/06/16 13:03:44;;;;;;;0.73;0.50;;;;;;;;;;10321387;28;20095;-68
2021/06/16 13:08:42;;;;;;;2.08;0.70;;;;;;;;;;10304104;28;20033;-68
2021/06/16 13:13:39;;;;;;;1.63;0.77;;;;;;;;;;10325562;28;20106;-69
2021/06/16 13:18:37;;;;;;;1.83;0.80;;;;;;;;;;10310505;28;20033;-68
2021/06/16 13:23:34;;;;;;;1.43;0.60;;;;;;;;;;10309501;28;20071;-68
2021/06/16 13:28:35;;;;;;;2.87;0.90;;;;;;;;;;10322455;28;20041;-67
2021/06/16 13:33:37;;;;;;;1.45;0.95;;;;;;;;;;10296753;28;20441;-67
2021/06/16 13:38:38;;;;;;;0.77;0.63;;;;;;;;;;10305689;28;20087;-68
2021/06/16 13:43:36;;;;;;;1.38;0.80;;;;;;;;;;10322679;28;20408;-68
2021/06/16 13:48:33;;;;;;;1.08;0.70;;;;;;;;;;10310289;28;20033;-68
2021/06/16 13:53:31;;;;;;;2.72;0.80;;;;;;;;;;10313924;28;20345;-68
2021/06/16 13:58:29;;;;;;;1.20;0.80;;;;;;;;;;10310920;28;20037;-67
2021/06/16 14:03:27;;;;;;;2.17;0.80;;;;;;;;;;10315647;28;20530;-67
2021/06/16 14:08:25;;;;;;;1.02;0.80;;;;;;;;;;10336085;28;20447;-67
2021/06/16 14:13:22;;;;;;;2.78;1.10;;;;;;;;;;10323778;28;20115;-67
2021/06/16 14:18:20;;;;;;;6.30;2.30;;;;;;;;;;10324622;28;20041;-67
2021/06/16 14:23:17;;;;;;;9.93;3.15;;;;;;;;;;10308129;28;20049;-67
2021/06/16 14:28:15;;;;;;;9.75;2.35;;;;;;;;;;10336132;28;20026;-67
2021/06/16 14:33:12;;;;;;;5.47;2.05;;;;;;;;;;10309302;28;20035;-67
2021/06/16 14:38:10;;;;;;;5.50;2.00;;;;;;;;;;10337704;28;20064;-68
2021/06/16 14:43:07;;;;;;;3.05;1.60;;;;;;;;;;10330475;28;20272;-68
2021/06/16 14:48:05;;;;;;;3.47;1.70;;;;;;;;;;10309685;28;20043;-67
2021/06/16 14:53:02;;;;;;;5.57;1.55;;;;;;;;;;10327257;28;20034;-67
2021/06/16 14:58:00;;;;;;;3.50;1.27;;;;;;;;;;10295420;28;20068;-68
2021/06/16 15:02:58;;;;;;;2.58;1.00;;;;;;;;;;10296846;28;20037;-68
2021/06/16 15:07:55;;;;;;;2.67;1.27;;;;;;;;;;10295515;28;20037;-68
2021/06/16 15:12:53;;;;;;;1.33;0.93;;;;;;;;;;10292277;28;20395;-67
2021/06/16 15:17:51;;;;;;;2.57;1.00;;;;;;;;;;10298267;28;20330;-67
2021/06/16 15:22:49;;;;;;;2.65;0.90;;;;;;;;;;10281607;28;20666;-68
2021/06/16 15:27:49;;;;;;;1.33;0.80;;;;;;;;;;10300670;28;20030;-68
2021/06/16 15:32:47;;;;;;;2.35;1.10;;;;;;;;;;10297734;28;20045;-67
2021/06/16 15:37:44;;;;;;;1.15;0.88;;;;;;;;;;10331297;28;20040;-68
2021/06/16 15:42:42;;;;;;;2.97;1.10;;;;;;;;;;10338531;28;20037;-67
2021/06/16 15:47:39;;;;;;;1.93;0.83;;;;;;;;;;10327027;28;20048;-67
2021/06/16 15:52:37;;;;;;;1.90;0.90;;;;;;;;;;10323802;28;20283;-67
2021/06/16 15:57:36;;;;;;;3.30;1.40;;;;;;;;;;10315117;28;20079;-68
2021/06/16 16:02:33;;;;;;;2.22;1.20;;;;;;;;;;10317211;28;20408;-67
2021/06/16 16:07:30;;;;;;;2.87;0.90;;;;;;;;;;10281954;28;20052;-67
2021/06/16 16:12:30;;;;;;;1.63;0.80;;;;;;;;;;10277495;28;20051;-67
2021/06/16 16:17:27;;;;;;;1.80;1.02;;;;;;;;;;10282151;28;20677;-68
2021/06/16 16:22:25;;;;;;;1.83;0.80;;;;;;;;;;10300663;28;20037;-68
2021/06/16 16:27:22;;;;;;;2.07;1.00;;;;;;;;;;10282564;28;20279;-68
2021/06/16 16:32:20;;;;;;;0.90;0.70;;;;;;;;;;10291434;28;20273;-67
2021/06/16 16:37:17;;;;;;;2.90;1.13;;;;;;;;;;10297540;28;20272;-67
2021/06/16 16:42:14;;;;;;;3.13;1.00;;;;;;;;;;10281768;28;20037;-69
2021/06/16 16:47:12;;;;;;;1.47;1.00;;;;;;;;;;10272054;28;20049;-69
2021/06/16 16:52:10;;;;;;;2.42;1.33;;;;;;;;;;10289819;28;20037;-68
2021/06/16 16:57:08;;;;;;;2.80;1.35;;;;;;;;;;10276734;28;20196;-68
2021/06/16 17:02:06;;;;;;;1.42;1.10;;;;;;;;;;10261482;28;20041;-69
2021/06/16 17:07:03;;;;;;;2.65;1.33;;;;;;;;;;10273754;28;20042;-69
2021/06/16 17:12:01;;;;;;;2.07;1.27;;;;;;;;;;10281236;28;20061;-68
2021/06/16 17:16:58;;;;;;;2.50;1.30;;;;;;;;;;10277800;28;20066;-69
2021/06/16 17:21:56;;;;;;;1.80;1.00;;;;;;;;;;10276398;28;20046;-69
2021/06/16 17:26:53;;;;;;;1.33;1.10;;;;;;;;;;10303355;28;20088;-68
2021/06/16 17:31:51;;;;;;;1.40;1.00;;;;;;;;;;10293649;28;20029;-68
2021/06/16 17:36:49;;;;;;;2.33;1.00;;;;;;;;;;10279178;28;20043;-69
2021/06/16 17:41:47;;;;;;;3.73;1.43;;;;;;;;;;10290605;28;20026;-69
2021/06/16 17:46:46;;;;;;;2.55;1.25;;;;;;;;;;10272525;28;20041;-69
2021/06/16 17:51:44;;;;;;;3.53;1.02;;;;;;;;;;10262618;28;20061;-69
2021/06/16 17:56:43;;;;;;;1.98;0.95;;;;;;;;;;10288197;28;20058;-69
2021/06/16 18:01:42;;;;;;;1.15;1.05;;;;;;;;;;10290789;28;20464;-69
2021/06/16 18:06:40;;;;;;;1.73;1.15;;;;;;;;;;10291754;28;20581;-69
2021/06/16 18:11:38;;;;;;;2.40;1.10;;;;;;;;;;10286448;28;20068;-69
2021/06/16 18:16:40;;;;;;;1.88;1.10;;;;;;;;;;10273815;28;20057;-68
2021/06/16 18:21:37;;;;;;;2.13;1.20;;;;;;;;;;10306540;28;20084;-69
2021/06/16 18:26:35;;;;;;;1.70;1.00;;;;;;;;;;10289250;28;20057;-69
2021/06/16 18:31:32;;;;;;;2.45;1.30;;;;;;;;;;10258819;28;20269;-69
2021/06/16 18:36:30;;;;;;;2.07;0.80;;;;;;;;;;10302286;28;20038;-69
2021/06/16 18:41:27;;;;;;;2.47;1.03;;;;;;;;;;10289963;28;20821;-69
2021/06/16 18:46:25;;;;;;;1.67;1.10;;;;;;;;;;10277028;28;20503;-69
2021/06/16 18:51:22;;;;;;;4.03;1.30;;;;;;;;;;10278382;28;20375;-69
2021/06/16 18:56:19;;;;;;;1.83;1.10;;;;;;;;;;10262601;28;20035;-69
2021/06/16 19:01:17;;;;;;;3.00;1.17;;;;;;;;;;10304404;28;20037;-69
2021/06/16 19:06:15;;;;;;;1.20;1.10;;;;;;;;;;10276516;28;20040;-66
2021/06/16 19:11:13;;;;;;;2.97;1.45;;;;;;;;;;10314759;28;20048;-66
2021/06/16 19:16:11;;;;;;;3.72;1.40;;;;;;;;;;10300620;28;20080;-68
2021/06/16 19:21:10;;;;;;;3.72;1.60;;;;;;;;;;10286032;28;20160;-69
2021/06/16 19:26:11;;;;;;;1.80;1.55;;;;;;;;;;10264338;28;20492;-70
2021/06/16 19:31:09;;;;;;;2.85;1.80;;;;;;;;;;10273842;28;20124;-69
2021/06/16 19:36:06;;;;;;;3.38;1.70;;;;;;;;;;10273210;28;20098;-69
2021/06/16 19:41:04;;;;;;;2.13;1.63;;;;;;;;;;10308214;28;20122;-70
2021/06/16 19:46:01;;;;;;;2.30;1.60;;;;;;;;;;10295057;28;20525;-70
2021/06/16 19:50:59;;;;;;;3.65;1.90;;;;;;;;;;10311218;28;20045;-70
2021/06/16 19:56:02;;;;;;;2.47;1.70;;;;;;;;;;10320883;28;20063;-70
2021/06/16 20:01:00;;;;;;;1.90;1.63;;;;;;;;;;10318860;28;20292;-69
2021/06/16 20:05:58;;;;;;;2.78;2.00;;;;;;;;;;10311714;28;20033;-70
2021/06/16 20:10:55;;;;;;;2.30;1.63;;;;;;;;;;10313194;28;20506;-68
2021/06/16 20:15:53;;;;;;;3.20;1.47;;;;;;;;;;10308105;28;20049;-70
2021/06/16 20:20:50;;;;;;;3.03;1.80;;;;;;;;;;10297000;28;20603;-69
2021/06/16 20:25:48;;;;;;;2.65;1.65;;;;;;;;;;10312664;28;20051;-70
2021/06/16 20:30:46;;;;;;;1.80;1.60;;;;;;;;;;10315670;28;20033;-70
2021/06/16 20:35:43;;;;;;;2.65;1.90;;;;;;;;;;10320520;28;20707;-70
2021/06/16 20:40:41;;;;;;;1.63;1.50;;;;;;;;;;10303876;28;20114;-69
2021/06/16 20:45:38;;;;;;;1.67;1.58;;;;;;;;;;10328360;28;20421;-70
2021/06/16 20:50:36;;;;;;;2.40;1.97;;;;;;;;;;10331025;28;20059;-69
2021/06/16 20:55:33;;;;;;;2.92;1.73;;;;;;;;;;10303553;28;20279;-70
2021/06/16 21:00:30;;;;;;;3.13;1.80;;;;;;;;;;10337828;28;20513;-69
2021/06/16 21:05:28;;;;;;;4.33;1.70;;;;;;;;;;10318947;28;20045;-69
2021/06/16 21:10:29;;;;;;;2.30;2.10;;;;;;;;;;10316957;28;20280;-67
2021/06/16 21:15:27;;;;;;;2.83;2.10;;;;;;;;;;10333901;28;20280;-67
2021/06/16 21:20:25;;;;;;;2.55;2.00;;;;;;;;;;10333930;28;20036;-66
2021/06/16 21:25:22;;;;;;;4.07;2.30;;;;;;;;;;10337280;28;20029;-66
2021/06/16 21:30:20;;;;;;;3.15;2.28;;;;;;;;;;10334178;28;20078;-66
2021/06/16 21:35:17;;;;;;;2.70;2.30;;;;;;;;;;10316553;28;20033;-64
2021/06/16 21:40:15;;;;;;;2.42;2.00;;;;;;;;;;10326659;28;20037;-64
2021/06/16 21:45:13;;;;;;;3.67;2.55;;;;;;;;;;10318141;28;20036;-66
2021/06/16 21:50:10;;;;;;;4.22;2.67;;;;;;;;;;10331843;28;20090;-65
2021/06/16 21:55:09;;;;;;;5.65;2.67;;;;;;;;;;10337038;28;20041;-65
2021/06/16 22:00:09;;;;;;;5.93;4.05;;;;;;;;;;10293782;28;20225;-65
2021/06/16 22:05:09;;;;;;;4.13;3.20;;;;;;;;;;10298485;28;20038;-65
2021/06/16 22:10:07;;;;;;;4.25;3.47;;;;;;;;;;10289977;28;20045;-65
2021/06/16 22:15:06;;;;;;;5.60;3.53;;;;;;;;;;10269522;28;20045;-65
2021/06/16 22:20:05;;;;;;;6.28;3.72;;;;;;;;;;10286560;28;20025;-65
2021/06/16 22:25:02;;;;;;;4.43;4.03;;;;;;;;;;10270959;28;20037;-65
2021/06/16 22:30:00;;;;;;;4.78;4.25;;;;;;;;;;10280987;28;20208;-65
2021/06/16 22:34:58;;;;;;;4.30;4.00;;;;;;;;;;10286743;28;20600;-67
2021/06/16 22:39:55;;;;;;;4.72;4.20;;;;;;;;;;10293090;28;20047;-68
2021/06/16 22:44:52;;;;;;;6.30;4.70;;;;;;;;;;10289205;28;20049;-68
2021/06/16 22:49:50;;;;;;;5.07;4.67;;;;;;;;;;10293756;28;20315;-68
2021/06/16 22:54:47;;;;;;;7.77;6.23;;;;;;;;;;10291989;28;20264;-68
2021/06/16 22:59:45;;;;;;;5.00;4.60;;;;;;;;;;10273245;28;20566;-68
2021/06/16 23:04:42;;;;;;;7.43;6.47;;;;;;;;;;10285926;28;20121;-68
2021/06/16 23:09:40;;;;;;;7.43;5.55;;;;;;;;;;10290720;28;20295;-68
2021/06/16 23:14:37;;;;;;;10.57;8.80;;;;;;;;;;10275138;28;20030;-67
2021/06/16 23:19:34;;;;;;;8.00;6.88;;;;;;;;;;10269842;28;20639;-67
2021/06/16 23:24:36;;;;;;;10.32;8.85;;;;;;;;;;10289644;28;20032;-67
2021/06/16 23:29:34;;;;;;;11.23;9.13;;;;;;;;;;10267632;28;20034;-67
2021/06/16 23:34:31;;;;;;;12.77;10.20;;;;;;;;;;10288090;28;20492;-67
2021/06/16 23:39:29;;;;;;;9.07;8.07;;;;;;;;;;10273685;28;20029;-67
2021/06/16 23:44:26;;;;;;;9.55;8.40;;;;;;;;;;10272180;28;20505;-67
2021/06/16 23:49:24;;;;;;;15.10;10.18;;;;;;;;;;10285727;28;20296;-68
2021/06/16 23:54:21;;;;;;;9.20;8.35;;;;;;;;;;10292773;28;20037;-67
2021/06/16 23:59:19;;;;;;;11.03;9.10;;;;;;;;;;10295066;28;20140;-68
